Home   Weather   United Kingdom   Edinburgh   Past weeks
Flag for United Kingdom

Past Weather in Edinburgh, Scotland, United Kingdom — May 2018

Currently: 61 °F. Passing clouds. (Weather station: Edinburgh Airport, United Kingdom). See more current weather

May 2018 Weather in Edinburgh — Graph

°F

High & Low Weather Summary for May 2018

 TemperatureHumidityPressure
High72 °F (May 6, 3:20 pm)100% (May 1, 12:50 am)30.48 "Hg (May 1, 12:50 am)
Low30 °F (May 1, 2:20 am)33% (May 7, 3:50 pm)29.27 "Hg (May 2, 4:20 am)
Average53 °F78%30.07 "Hg
* Reported May 1 12:20 am — May 31 11:50 pm, Edinburgh. Weather by CustomWeather, © 2021

Note: Actual official high and low records may vary slightly from our data, if they occured in-between our weather recording intervals... More about our weather records

Edinburgh Weather History for May 1, 2018

Scroll right to see more
 ConditionsComfort  
Time TempWeatherWind HumidityBarometerVisibility
12:20 am
Tue, May 1
34 °FClear.1 mph93%29.74 "Hg10 mi
12:50 am34 °FClear.2 mph100%29.74 "Hg10 mi
1:20 am32 °FClear.3 mph93%29.74 "Hg10 mi
1:50 am34 °FClear.3 mph93%29.71 "Hg10 mi
2:20 am30 °FClear.2 mph100%29.71 "Hg10 mi
2:50 am32 °FClear.3 mph100%29.68 "Hg10 mi
3:20 am30 °FClear.2 mph100%29.68 "Hg10 mi
3:50 am30 °FClear.5 mph100%29.68 "Hg10 mi
4:20 am32 °FClear.5 mph93%29.68 "Hg10 mi
4:50 am30 °FClear.2 mph100%29.68 "Hg5 mi
5:20 am30 °FClear.2 mph100%29.65 "Hg10 mi
6:20 am30 °FClear.1 mph100%29.65 "Hg6 mi
6:50 am34 °FSunny.1 mph93%29.65 "Hg10 mi
7:20 am37 °FSunny.1 mph93%29.62 "Hg10 mi
8:20 am45 °FSunny.3 mph71%29.62 "Hg10 mi
8:50 am50 °FSunny.13 mph62%29.62 "Hg10 mi
9:20 am50 °FPassing clouds.13 mph62%29.59 "HgN/A
9:50 am52 °FScattered clouds.14 mph58%29.59 "HgN/A
10:20 am52 °FPassing clouds.17 mph58%29.59 "HgN/A
10:50 am52 °FPassing clouds.16 mph54%29.56 "HgN/A
11:20 am55 °FPassing clouds.15 mph51%29.56 "HgN/A
11:50 am54 °FPassing clouds.22 mph47%29.56 "HgN/A
12:20 pm55 °FPassing clouds.21 mph41%29.53 "HgN/A
1:20 pm55 °FSunny.22 mph41%29.53 "Hg10 mi
2:20 pm54 °FScattered clouds.25 mph54%29.53 "HgN/A
3:20 pm52 °FLight rain. Partly sunny.21 mph62%29.50 "HgN/A
3:50 pm52 °FLight rain. Partly sunny.18 mph62%29.50 "HgN/A
4:50 pm50 °FLight rain. Partly sunny.20 mph71%29.47 "HgN/A
5:50 pm50 °FPartly sunny.21 mph67%29.45 "HgN/A
6:20 pm50 °FScattered clouds.23 mph71%29.45 "HgN/A
6:50 pm50 °FPartly sunny.24 mph71%29.45 "HgN/A
7:20 pm50 °FPartly sunny.21 mph71%29.42 "HgN/A
7:50 pm50 °FScattered clouds.18 mph71%29.42 "HgN/A
8:20 pm50 °FScattered clouds.20 mph71%29.42 "HgN/A
8:50 pm50 °FPartly sunny.17 mph71%29.42 "HgN/A
9:20 pm50 °FPassing clouds.20 mph71%29.42 "HgN/A
9:50 pm50 °FPassing clouds.20 mph76%29.39 "HgN/A
10:20 pm50 °FPassing clouds.14 mph76%29.39 "HgN/A
10:50 pm48 °FLight rain. Passing clouds.16 mph82%29.39 "HgN/A
11:20 pm48 °FLight rain. Passing clouds.18 mph82%29.39 "HgN/A
11:50 pm48 °FLight rain. Passing clouds.16 mph82%29.36 "HgN/A
Weather by CustomWeather, © 2021

See weather overview